createdAt,value
2023-11-12T00:02:17.390Z,10.29
2023-11-12T00:04:44.800Z,10.32
2023-11-12T00:07:11.623Z,10.06
2023-11-12T00:09:40.896Z,10.25
2023-11-12T00:12:10.475Z,10.27
2023-11-12T00:14:37.351Z,10.16
2023-11-12T00:17:04.429Z,10.11
2023-11-12T00:19:34.078Z,10.01
2023-11-12T00:22:00.983Z,10.13
2023-11-12T00:24:29.522Z,10.14
2023-11-12T00:26:56.218Z,10.17
2023-11-12T00:29:23.132Z,10.04
2023-11-12T00:31:50.936Z,10.38
2023-11-12T00:34:17.889Z,10.48
2023-11-12T00:36:44.723Z,10.06
2023-11-12T00:39:11.708Z,10.06
2023-11-12T00:41:40.210Z,9.93
2023-11-12T00:44:10.180Z,10.02
2023-11-12T00:46:37.881Z,9.89
2023-11-12T00:49:08.542Z,9.92
2023-11-12T00:51:37.006Z,9.66
2023-11-12T00:54:04.092Z,9.72
2023-11-12T00:56:31.329Z,9.60
2023-11-12T00:58:58.212Z,9.64
2023-11-12T01:01:25.114Z,9.79
2023-11-12T01:03:52.152Z,9.68
2023-11-12T01:06:18.973Z,9.79
2023-11-12T01:08:46.982Z,9.90
2023-11-12T01:11:14.561Z,9.58
2023-11-12T01:13:41.439Z,9.53
2023-11-12T01:16:08.828Z,9.46
2023-11-12T01:18:36.811Z,9.46
2023-11-12T01:21:06.479Z,9.21
2023-11-12T01:23:33.277Z,9.15
2023-11-12T01:26:00.118Z,8.92
2023-11-12T01:28:31.093Z,8.85
2023-11-12T01:30:58.083Z,9.12
2023-11-12T01:33:24.892Z,9.32
2023-11-12T01:35:53.229Z,9.38
2023-11-12T01:38:20.388Z,9.58
2023-11-12T01:40:48.970Z,9.76
2023-11-12T01:43:16.400Z,9.66
2023-11-12T01:45:44.764Z,9.70
2023-11-12T01:48:13.372Z,9.64
2023-11-12T01:50:40.391Z,9.60
2023-11-12T01:53:07.090Z,9.82
2023-11-12T01:55:34.189Z,10.02
2023-11-12T01:58:02.069Z,9.85
2023-11-12T02:00:29.129Z,10.07
2023-11-12T02:02:56.899Z,10.09
2023-11-12T02:05:24.623Z,10.13
2023-11-12T02:07:52.164Z,10.25
2023-11-12T02:10:19.070Z,9.92
2023-11-12T02:12:47.794Z,9.93
2023-11-12T02:15:16.463Z,9.71
2023-11-12T02:17:46.694Z,9.67
2023-11-12T02:20:18.330Z,9.33
2023-11-12T02:22:45.637Z,9.42
2023-11-12T02:25:14.863Z,9.65
2023-11-12T02:27:41.984Z,9.77
2023-11-12T02:30:13.059Z,9.81
2023-11-12T02:32:40.625Z,9.81
2023-11-12T02:35:08.949Z,9.70
2023-11-12T02:37:36.953Z,9.63
2023-11-12T02:40:04.456Z,9.46
2023-11-12T02:42:31.805Z,9.74
2023-11-12T02:44:58.659Z,9.82
2023-11-12T02:47:26.988Z,10.13
2023-11-12T02:50:22.131Z,10.06
2023-11-12T02:52:49.107Z,10.04
2023-11-12T02:55:17.994Z,10.28
2023-11-12T02:57:46.859Z,10.02
2023-11-12T03:00:15.491Z,9.96
2023-11-12T03:02:42.701Z,10.21
2023-11-12T03:05:09.952Z,10.23
2023-11-12T03:07:37.101Z,9.66
2023-11-12T03:10:05.282Z,9.68
2023-11-12T03:12:33.442Z,9.63
2023-11-12T03:15:00.486Z,10.00
2023-11-12T03:17:28.248Z,9.98
2023-11-12T03:19:56.125Z,9.35
2023-11-12T03:22:23.450Z,9.64
2023-11-12T03:24:50.157Z,9.80
2023-11-12T03:27:18.035Z,10.13
2023-11-12T03:29:45.165Z,9.77
2023-11-12T03:32:11.919Z,9.64
2023-11-12T03:34:38.716Z,10.22
2023-11-12T03:37:05.625Z,10.26
2023-11-12T03:39:32.517Z,9.96
2023-11-12T03:41:59.560Z,9.75
2023-11-12T03:44:26.822Z,9.67
2023-11-12T03:46:53.729Z,9.79
2023-11-12T03:49:20.498Z,10.10
2023-11-12T03:51:48.502Z,10.01
2023-11-12T03:54:16.407Z,9.99
2023-11-12T03:56:43.248Z,9.98
2023-11-12T03:59:10.369Z,10.08
2023-11-12T04:01:38.147Z,10.15
2023-11-12T04:04:05.804Z,10.19
2023-11-12T04:06:32.929Z,10.15
2023-11-12T04:08:59.774Z,9.71
2023-11-12T04:11:27.319Z,9.99
2023-11-12T04:13:54.072Z,10.05
2023-11-12T04:16:21.032Z,10.22
2023-11-12T04:18:48.432Z,10.35
2023-11-12T04:21:15.264Z,10.24
2023-11-12T04:23:45.213Z,10.63
2023-11-12T04:26:12.374Z,10.25
2023-11-12T04:28:39.149Z,9.83
2023-11-12T04:31:06.559Z,10.33
2023-11-12T04:33:33.450Z,10.21
2023-11-12T04:36:00.293Z,10.08
2023-11-12T04:38:27.053Z,10.21
2023-11-12T04:40:54.629Z,10.00
2023-11-12T04:43:21.829Z,10.55
2023-11-12T04:45:48.679Z,10.37
2023-11-12T04:48:15.658Z,10.35
2023-11-12T04:50:42.768Z,10.34
2023-11-12T04:53:09.829Z,10.59
2023-11-12T04:55:36.616Z,10.30
2023-11-12T04:58:05.609Z,10.47
2023-11-12T05:00:32.448Z,10.36
2023-11-12T05:02:59.543Z,10.11
2023-11-12T05:05:26.373Z,10.78
2023-11-12T05:07:53.100Z,10.71
2023-11-12T05:10:19.973Z,10.86
2023-11-12T05:12:46.991Z,10.90
2023-11-12T05:15:13.967Z,11.28
2023-11-12T05:17:40.704Z,11.03
2023-11-12T05:20:08.702Z,10.90
2023-11-12T05:22:35.395Z,10.38
2023-11-12T05:25:02.418Z,10.84
2023-11-12T05:27:29.393Z,10.67
2023-11-12T05:29:56.380Z,10.52
2023-11-12T05:32:23.105Z,11.06
2023-11-12T05:34:51.150Z,11.22
2023-11-12T05:37:17.883Z,11.15
2023-11-12T05:39:44.714Z,11.30
2023-11-12T05:42:11.488Z,10.87
2023-11-12T05:44:38.253Z,10.73
2023-11-12T05:47:05.782Z,10.93
2023-11-12T05:49:32.563Z,10.82
2023-11-12T05:51:59.401Z,11.00
2023-11-12T05:54:26.483Z,11.22
2023-11-12T05:56:53.274Z,11.20
2023-11-12T05:59:20.026Z,10.86
2023-11-12T06:01:46.917Z,10.59
2023-11-12T06:04:13.907Z,10.73
2023-11-12T06:06:41.353Z,11.06
2023-11-12T06:09:11.294Z,11.23
2023-11-12T06:11:39.147Z,10.51
2023-11-12T06:14:05.871Z,10.86
2023-11-12T06:16:32.812Z,10.34
2023-11-12T06:18:59.492Z,10.88
2023-11-12T06:21:26.469Z,10.83
2023-11-12T06:23:53.608Z,10.57
2023-11-12T06:26:22.344Z,10.70
2023-11-12T06:28:50.040Z,11.18
2023-11-12T06:31:17.785Z,11.13
2023-11-12T06:33:45.468Z,11.01
2023-11-12T06:36:15.071Z,11.11
2023-11-12T06:38:42.537Z,11.25
2023-11-12T06:41:11.180Z,11.18
2023-11-12T06:43:38.359Z,11.11
2023-11-12T06:46:06.438Z,10.98
2023-11-12T06:48:33.272Z,11.10
2023-11-12T06:51:00.482Z,11.17
2023-11-12T06:53:27.195Z,11.00
2023-11-12T06:55:54.273Z,10.89
2023-11-12T06:58:21.298Z,11.05
2023-11-12T07:00:48.438Z,10.23
2023-11-12T07:03:15.242Z,10.50
2023-11-12T07:05:42.947Z,10.34
2023-11-12T07:08:09.764Z,10.53
2023-11-12T07:10:39.156Z,10.69
2023-11-12T07:13:06.554Z,10.68
2023-11-12T07:15:33.471Z,10.75
2023-11-12T07:18:00.274Z,10.56
2023-11-12T07:20:33.577Z,10.65
2023-11-12T07:23:01.223Z,10.64
2023-11-12T07:25:28.547Z,10.77
2023-11-12T07:27:55.444Z,10.94
2023-11-12T07:30:22.446Z,10.67
2023-11-12T07:32:49.427Z,10.90
2023-11-12T07:35:16.240Z,11.09
2023-11-12T07:37:43.331Z,10.83
2023-11-12T07:40:12.387Z,10.85
2023-11-12T07:42:40.382Z,10.99
2023-11-12T07:45:14.083Z,10.24
2023-11-12T07:47:44.123Z,10.73
2023-11-12T07:50:11.152Z,10.62
2023-11-12T07:52:37.961Z,10.32
2023-11-12T07:55:06.862Z,10.37
2023-11-12T07:57:33.994Z,10.40
2023-11-12T08:00:01.580Z,10.80
2023-11-12T08:02:40.371Z,10.58
2023-11-12T08:05:09.592Z,10.40
2023-11-12T08:07:36.922Z,10.21
2023-11-12T08:10:06.408Z,10.61
2023-11-12T08:12:33.370Z,10.71
2023-11-12T08:15:00.250Z,10.84
2023-11-12T08:17:27.212Z,11.10
2023-11-12T08:19:59.481Z,10.84
2023-11-12T08:22:27.030Z,10.78
2023-11-12T08:24:56.264Z,10.85
2023-11-12T08:27:24.051Z,10.85
2023-11-12T08:29:52.933Z,10.66
2023-11-12T08:32:19.719Z,10.72
2023-11-12T08:34:47.142Z,10.88
2023-11-12T08:37:15.706Z,10.78
2023-11-12T08:39:42.730Z,11.27
2023-11-12T08:42:09.665Z,11.18
2023-11-12T08:44:36.447Z,11.61
2023-11-12T08:47:14.802Z,11.60
2023-11-12T08:49:41.662Z,11.16
2023-11-12T08:52:08.499Z,11.39
2023-11-12T08:54:35.666Z,11.12
2023-11-12T08:57:04.387Z,11.37
2023-11-12T08:59:31.916Z,11.42
2023-11-12T09:01:58.761Z,11.59
2023-11-12T09:04:26.492Z,11.24
2023-11-12T09:06:53.567Z,11.37
2023-11-12T09:09:20.446Z,11.71
2023-11-12T09:11:47.269Z,11.76
2023-11-12T09:14:16.315Z,11.41
2023-11-12T09:16:45.741Z,11.50
2023-11-12T09:19:12.715Z,11.88
2023-11-12T09:21:39.560Z,11.64
2023-11-12T09:24:07.029Z,11.77
2023-11-12T09:26:33.741Z,11.62
2023-11-12T09:29:00.744Z,11.54
2023-11-12T09:31:28.289Z,11.63
2023-11-12T09:33:55.095Z,11.94
2023-11-12T09:36:22.225Z,11.92
2023-11-12T09:38:50.330Z,12.23
2023-11-12T09:41:22.785Z,12.08
2023-11-12T09:43:53.279Z,12.37
2023-11-12T09:46:21.676Z,12.35
2023-11-12T09:48:50.462Z,12.51
2023-11-12T09:51:17.715Z,12.52
2023-11-12T09:53:49.744Z,12.59
2023-11-12T09:56:16.546Z,12.56
2023-11-12T09:58:46.510Z,12.65
2023-11-12T10:01:14.596Z,12.63
2023-11-12T10:03:44.235Z,11.84
2023-11-12T10:06:12.245Z,12.00
2023-11-12T10:08:39.101Z,11.90
2023-11-12T10:11:21.408Z,12.27
2023-11-12T10:13:49.222Z,12.00
2023-11-12T10:16:32.218Z,11.81
2023-11-12T10:19:12.837Z,12.21
2023-11-12T10:21:57.001Z,11.88
2023-11-12T10:24:25.509Z,12.09
2023-11-12T10:26:54.632Z,11.91
2023-11-12T10:29:23.223Z,11.58
2023-11-12T10:31:50.634Z,11.83
2023-11-12T10:34:18.404Z,12.09
2023-11-12T10:37:17.462Z,11.75
2023-11-12T10:39:45.800Z,12.16
2023-11-12T10:42:26.619Z,12.01
2023-11-12T10:44:58.783Z,12.66
2023-11-12T10:47:31.406Z,12.24
2023-11-12T10:49:59.581Z,12.50
2023-11-12T10:52:28.012Z,12.27
2023-11-12T10:54:59.720Z,12.24
2023-11-12T10:57:34.156Z,12.65
2023-11-12T11:00:01.876Z,12.58
2023-11-12T11:02:34.073Z,12.65
2023-11-12T11:05:02.142Z,12.61
2023-11-12T11:07:31.302Z,12.68
2023-11-12T11:09:59.057Z,12.53
2023-11-12T11:12:26.420Z,12.71
2023-11-12T11:14:55.490Z,13.22
2023-11-12T11:17:39.699Z,12.73
2023-11-12T11:20:07.458Z,12.74
2023-11-12T11:22:36.866Z,12.71
2023-11-12T11:25:33.282Z,12.57
2023-11-12T11:28:19.979Z,12.49
2023-11-12T11:31:25.445Z,12.61
2023-11-12T11:33:52.846Z,12.85
2023-11-12T11:36:20.512Z,12.89
2023-11-12T11:39:16.609Z,12.88
2023-11-12T11:41:49.479Z,13.24
2023-11-12T11:44:45.635Z,13.01
2023-11-12T11:47:24.366Z,12.81
2023-11-12T11:50:14.429Z,13.10
2023-11-12T11:52:41.829Z,13.20
2023-11-12T11:55:13.382Z,13.11
2023-11-12T11:57:47.914Z,13.07
2023-11-12T12:00:20.669Z,13.29
2023-11-12T12:02:52.944Z,13.35
2023-11-12T12:05:34.086Z,13.36
2023-11-12T12:08:02.035Z,13.39
2023-11-12T12:10:30.853Z,13.85
2023-11-12T12:12:57.994Z,13.69
2023-11-12T12:15:25.037Z,13.88
2023-11-12T12:17:51.930Z,13.93
2023-11-12T12:20:18.705Z,13.81
2023-11-12T12:22:45.523Z,13.73
2023-11-12T12:25:12.669Z,13.89
2023-11-12T12:27:51.717Z,14.00
2023-11-12T12:30:19.416Z,13.88
2023-11-12T12:32:46.228Z,14.09
2023-11-12T12:35:22.283Z,14.23
2023-11-12T12:37:49.088Z,14.22
2023-11-12T12:40:26.753Z,14.12
2023-11-12T12:42:54.974Z,14.10
2023-11-12T12:45:22.638Z,13.91
2023-11-12T12:47:49.906Z,14.09
2023-11-12T12:50:33.662Z,14.03
2023-11-12T12:53:14.528Z,14.18
2023-11-12T12:55:45.624Z,14.18
2023-11-12T12:58:13.049Z,14.20
2023-11-12T13:00:44.678Z,13.76
2023-11-12T13:03:41.553Z,13.81
2023-11-12T13:06:13.420Z,13.93
2023-11-12T13:08:49.009Z,13.36
2023-11-12T13:11:20.604Z,13.91
2023-11-12T13:13:47.596Z,13.77
2023-11-12T13:16:15.213Z,13.97
2023-11-12T13:18:42.901Z,14.12
2023-11-12T13:21:11.453Z,14.10
2023-11-12T13:23:39.935Z,14.18
2023-11-12T13:26:07.567Z,14.11
2023-11-12T13:28:37.456Z,14.07
2023-11-12T13:31:05.917Z,14.17
2023-11-12T13:33:34.788Z,14.16
2023-11-12T13:36:04.006Z,14.10
2023-11-12T13:38:34.845Z,13.98
2023-11-12T13:41:02.365Z,14.25
2023-11-12T13:43:30.316Z,14.30
2023-11-12T13:45:57.335Z,14.34
2023-11-12T13:48:25.350Z,14.35
2023-11-12T13:50:54.392Z,14.32
2023-11-12T13:53:23.925Z,14.37
2023-11-12T13:55:59.338Z,14.40
2023-11-12T13:58:28.802Z,14.08
2023-11-12T14:00:55.837Z,14.15
2023-11-12T14:03:23.332Z,14.31
2023-11-12T14:05:50.168Z,14.18
2023-11-12T14:08:18.468Z,14.11
2023-11-12T14:10:49.361Z,13.99
2023-11-12T14:13:16.329Z,13.66
2023-11-12T14:15:43.041Z,13.49
2023-11-12T14:18:11.418Z,13.59
2023-11-12T14:20:38.246Z,13.42
2023-11-12T14:23:06.457Z,13.72
2023-11-12T14:25:34.009Z,13.07
2023-11-12T14:28:01.012Z,13.52
2023-11-12T14:30:27.825Z,13.26
2023-11-12T14:32:54.684Z,13.49
2023-11-12T14:35:24.434Z,13.79
2023-11-12T14:37:51.432Z,13.73
2023-11-12T14:40:18.462Z,13.71
2023-11-12T14:42:46.921Z,13.97
2023-11-12T14:45:24.947Z,14.12
2023-11-12T14:47:56.168Z,13.80
2023-11-12T14:50:23.342Z,13.66
2023-11-12T14:52:52.096Z,13.42
2023-11-12T14:55:25.278Z,13.51
2023-11-12T14:57:58.108Z,13.71
2023-11-12T15:00:30.010Z,13.72
2023-11-12T15:02:58.792Z,13.69
2023-11-12T15:05:26.073Z,13.78
2023-11-12T15:07:52.994Z,13.86
2023-11-12T15:10:21.982Z,13.79
2023-11-12T15:12:49.458Z,13.85
2023-11-12T15:15:17.196Z,13.98
2023-11-12T15:17:44.463Z,14.02
2023-11-12T15:20:14.212Z,13.59
2023-11-12T15:22:42.898Z,13.44
2023-11-12T15:25:10.395Z,13.71
2023-11-12T15:27:37.543Z,13.44
2023-11-12T15:30:04.897Z,13.61
2023-11-12T15:32:32.509Z,13.97
2023-11-12T15:34:59.701Z,13.84
2023-11-12T15:37:27.150Z,13.68
2023-11-12T15:39:56.348Z,13.62
2023-11-12T15:42:25.081Z,13.71
2023-11-12T15:44:52.027Z,13.61
2023-11-12T15:47:20.915Z,13.80
2023-11-12T15:49:48.093Z,13.63
2023-11-12T15:52:15.148Z,13.86
2023-11-12T15:54:48.328Z,13.85
2023-11-12T15:57:16.857Z,13.79
2023-11-12T15:59:43.685Z,13.74
2023-11-12T16:02:11.090Z,13.66
2023-11-12T16:04:38.266Z,13.67
2023-11-12T16:07:05.682Z,13.76
2023-11-12T16:09:32.575Z,13.71
2023-11-12T16:11:59.535Z,12.86
2023-11-12T16:14:26.464Z,13.14
2023-11-12T16:16:53.627Z,13.29
2023-11-12T16:19:20.780Z,13.05
2023-11-12T16:21:48.444Z,13.44
2023-11-12T16:24:18.516Z,13.26
2023-11-12T16:26:45.336Z,13.51
2023-11-12T16:29:14.228Z,13.66
2023-11-12T16:31:42.930Z,13.64
2023-11-12T16:34:10.017Z,13.52
2023-11-12T16:36:37.027Z,13.30
2023-11-12T16:39:04.529Z,13.35
2023-11-12T16:41:31.992Z,13.27
2023-11-12T16:43:58.820Z,13.33
2023-11-12T16:46:26.022Z,13.41
2023-11-12T16:48:52.884Z,13.18
2023-11-12T16:51:19.877Z,13.08
2023-11-12T16:53:46.729Z,12.54
2023-11-12T16:56:13.640Z,12.55
2023-11-12T16:58:41.084Z,13.07
2023-11-12T17:01:08.447Z,12.72
2023-11-12T17:03:36.094Z,12.66
2023-11-12T17:06:03.294Z,12.47
2023-11-12T17:08:30.395Z,13.07
2023-11-12T17:10:57.551Z,12.92
2023-11-12T17:13:24.487Z,12.77
2023-11-12T17:15:51.402Z,12.65
2023-11-12T17:18:18.399Z,12.41
2023-11-12T17:20:45.309Z,12.82
2023-11-12T17:23:13.126Z,13.09
2023-11-12T17:25:40.390Z,12.89
2023-11-12T17:28:07.327Z,13.08
2023-11-12T17:30:36.420Z,13.20
2023-11-12T17:33:04.108Z,13.14
2023-11-12T17:35:32.428Z,13.05
2023-11-12T17:37:59.278Z,12.87
2023-11-12T17:40:26.098Z,12.67
2023-11-12T17:42:52.909Z,12.86
2023-11-12T17:45:19.801Z,13.23
2023-11-12T17:47:46.572Z,13.28
2023-11-12T17:50:13.443Z,13.18
2023-11-12T17:52:40.218Z,13.00
2023-11-12T17:55:07.452Z,13.00
2023-11-12T17:57:35.973Z,13.21
2023-11-12T18:00:04.095Z,13.40
2023-11-12T18:02:41.108Z,13.45
2023-11-12T18:05:08.223Z,13.55
2023-11-12T18:07:34.982Z,13.66
2023-11-12T18:10:03.544Z,13.54
2023-11-12T18:12:30.455Z,13.43
2023-11-12T18:14:58.464Z,13.70
2023-11-12T18:17:26.683Z,13.80
2023-11-12T18:19:53.542Z,13.66
2023-11-12T18:22:21.567Z,13.53
2023-11-12T18:24:49.404Z,13.71
2023-11-12T18:27:16.641Z,13.77
2023-11-12T18:29:44.947Z,13.82
2023-11-12T18:32:11.772Z,13.71
2023-11-12T18:34:38.750Z,13.77
2023-11-12T18:37:05.579Z,13.56
2023-11-12T18:39:32.469Z,13.22
2023-11-12T18:41:59.900Z,12.83
2023-11-12T18:44:26.732Z,12.71
2023-11-12T18:46:53.545Z,12.57
2023-11-12T18:49:20.880Z,12.87
2023-11-12T18:51:47.970Z,12.68
2023-11-12T18:54:16.232Z,12.56
2023-11-12T18:56:47.401Z,12.59
2023-11-12T18:59:14.526Z,12.32
2023-11-12T19:01:43.245Z,12.41
2023-11-12T19:04:10.207Z,12.68
2023-11-12T19:06:52.282Z,12.66
2023-11-12T19:09:19.760Z,12.84
2023-11-12T19:11:47.848Z,13.07
2023-11-12T19:14:19.456Z,13.04
2023-11-12T19:16:47.937Z,12.84
2023-11-12T19:19:15.620Z,13.16
2023-11-12T19:21:42.539Z,13.29
2023-11-12T19:24:11.394Z,13.38
2023-11-12T19:26:38.537Z,13.28
2023-11-12T19:29:05.331Z,13.04
2023-11-12T19:31:34.072Z,12.94
2023-11-12T19:34:02.043Z,12.83
2023-11-12T19:36:29.004Z,12.95
2023-11-12T19:38:55.851Z,12.44
2023-11-12T19:41:24.620Z,12.51
2023-11-12T19:43:55.115Z,12.75
2023-11-12T19:46:22.800Z,12.96
2023-11-12T19:48:49.651Z,12.96
2023-11-12T19:51:16.548Z,13.17
2023-11-12T19:53:43.465Z,12.95
2023-11-12T19:56:10.381Z,12.46
2023-11-12T19:58:40.241Z,12.69
2023-11-12T20:01:07.955Z,12.42
2023-11-12T20:03:35.809Z,12.26
2023-11-12T20:06:03.082Z,12.77
2023-11-12T20:08:29.980Z,12.40
2023-11-12T20:10:57.104Z,12.78
2023-11-12T20:13:24.054Z,12.64
2023-11-12T20:15:52.798Z,12.79
2023-11-12T20:18:21.834Z,12.76
2023-11-12T20:20:48.740Z,12.49
2023-11-12T20:23:15.786Z,12.50
2023-11-12T20:25:42.606Z,12.85
2023-11-12T20:28:14.795Z,12.49
2023-11-12T20:30:45.466Z,12.69
2023-11-12T20:33:14.272Z,12.81
2023-11-12T20:35:41.109Z,12.32
2023-11-12T20:38:12.742Z,12.83
2023-11-12T20:40:40.109Z,12.75
2023-11-12T20:43:07.115Z,12.90
2023-11-12T20:45:34.128Z,12.60
2023-11-12T20:48:01.525Z,12.40
2023-11-12T20:50:29.428Z,12.48
2023-11-12T20:52:58.856Z,11.88
2023-11-12T20:55:25.936Z,12.23
2023-11-12T20:57:53.706Z,12.27
2023-11-12T21:00:22.722Z,12.55
2023-11-12T21:02:50.748Z,12.27
2023-11-12T21:05:19.919Z,12.35
2023-11-12T21:07:49.839Z,12.31
2023-11-12T21:10:16.828Z,12.06
2023-11-12T21:12:43.882Z,12.33
2023-11-12T21:15:13.220Z,11.58
2023-11-12T21:17:40.370Z,12.08
2023-11-12T21:20:08.016Z,11.98
2023-11-12T21:22:37.424Z,12.17
2023-11-12T21:25:05.082Z,12.00
2023-11-12T21:27:32.101Z,12.35
2023-11-12T21:30:00.277Z,11.97
2023-11-12T21:32:27.164Z,12.15
2023-11-12T21:34:53.905Z,12.28
2023-11-12T21:37:21.352Z,12.11
2023-11-12T21:39:48.118Z,12.61
2023-11-12T21:42:15.951Z,12.43
2023-11-12T21:44:42.769Z,12.02
2023-11-12T21:47:09.523Z,12.65
2023-11-12T21:49:36.658Z,12.36
2023-11-12T21:52:04.820Z,12.51
2023-11-12T21:54:31.736Z,12.52
2023-11-12T21:57:00.796Z,12.47
2023-11-12T21:59:27.586Z,12.78
2023-11-12T22:01:54.294Z,12.65
2023-11-12T22:04:22.791Z,12.73
2023-11-12T22:06:49.905Z,12.71
2023-11-12T22:09:17.697Z,12.75
2023-11-12T22:11:48.189Z,12.63
2023-11-12T22:14:15.165Z,12.77
2023-11-12T22:16:48.397Z,12.73
2023-11-12T22:19:23.614Z,13.36
2023-11-12T22:21:55.400Z,13.41
2023-11-12T22:24:35.357Z,13.06
2023-11-12T22:27:04.137Z,13.23
2023-11-12T22:29:34.642Z,13.05
2023-11-12T22:32:11.915Z,13.19
2023-11-12T22:34:46.248Z,13.18
2023-11-12T22:37:17.638Z,13.17
2023-11-12T22:39:47.794Z,13.33
2023-11-12T22:42:21.948Z,12.41
2023-11-12T22:44:48.897Z,12.59
2023-11-12T22:47:15.670Z,12.87
2023-11-12T22:49:42.577Z,12.69
2023-11-12T22:52:09.385Z,13.07
2023-11-12T22:54:36.172Z,13.12
2023-11-12T22:57:03.133Z,13.37
2023-11-12T22:59:30.455Z,13.29
2023-11-12T23:01:57.535Z,13.53
2023-11-12T23:04:25.570Z,13.36
2023-11-12T23:06:58.475Z,13.36
2023-11-12T23:09:29.880Z,13.54
2023-11-12T23:11:57.252Z,13.22
2023-11-12T23:14:26.798Z,13.07
2023-11-12T23:16:55.846Z,13.04
2023-11-12T23:19:23.571Z,13.12
2023-11-12T23:21:52.157Z,13.21
2023-11-12T23:24:22.437Z,13.19
2023-11-12T23:26:49.721Z,13.15
2023-11-12T23:29:16.426Z,13.00
2023-11-12T23:31:43.495Z,12.94
2023-11-12T23:34:10.238Z,12.88
2023-11-12T23:36:37.012Z,13.06
2023-11-12T23:39:04.087Z,12.78
2023-11-12T23:41:30.891Z,12.94
2023-11-12T23:43:57.712Z,12.77
2023-11-12T23:46:24.633Z,12.66
2023-11-12T23:48:51.610Z,12.94
2023-11-12T23:51:18.744Z,12.87
2023-11-12T23:53:46.892Z,12.82
2023-11-12T23:56:17.977Z,12.89
2023-11-12T23:58:44.711Z,12.75
